createdAt,value
2023-04-21T00:00:33.849Z,10.80
2023-04-21T00:03:03.669Z,12.20
2023-04-21T00:05:33.481Z,11.40
2023-04-21T00:08:01.878Z,12.10
2023-04-21T00:10:30.543Z,15.30
2023-04-21T00:12:59.123Z,15.20
2023-04-21T00:15:27.358Z,14.40
2023-04-21T00:17:56.225Z,11.40
2023-04-21T00:20:27.076Z,12.80
2023-04-21T00:22:58.885Z,8.30
2023-04-21T00:25:27.393Z,7.20
2023-04-21T00:27:56.195Z,9.50
2023-04-21T00:30:24.741Z,7.40
2023-04-21T00:32:53.207Z,6.40
2023-04-21T00:35:21.596Z,7.70
2023-04-21T00:37:50.468Z,5.70
2023-04-21T00:40:18.877Z,7.30
2023-04-21T00:42:47.143Z,7.70
2023-04-21T00:45:15.834Z,7.20
2023-04-21T00:47:44.193Z,7.20
2023-04-21T00:50:13.050Z,5.60
2023-04-21T00:52:42.430Z,6.70
2023-04-21T00:55:10.866Z,7.20
2023-04-21T00:57:39.208Z,7.80
2023-04-21T01:00:09.112Z,8.00
2023-04-21T01:02:40.064Z,7.70
2023-04-21T01:05:12.255Z,9.80
2023-04-21T01:07:43.408Z,9.60
2023-04-21T01:10:12.003Z,11.30
2023-04-21T01:12:45.413Z,6.80
2023-04-21T01:15:16.435Z,6.00
2023-04-21T01:17:45.697Z,7.80
2023-04-21T01:20:16.168Z,6.20
2023-04-21T01:22:48.031Z,7.20
2023-04-21T01:25:17.821Z,6.80
2023-04-21T01:27:46.409Z,5.20
2023-04-21T01:30:14.785Z,6.50
2023-04-21T01:32:43.247Z,6.70
2023-04-21T01:35:11.580Z,8.50
2023-04-21T01:37:40.548Z,6.10
2023-04-21T01:40:09.495Z,7.90
2023-04-21T01:42:40.401Z,7.30
2023-04-21T01:45:09.880Z,7.00
2023-04-21T01:47:39.241Z,6.70
2023-04-21T01:50:08.882Z,8.20
2023-04-21T01:52:37.991Z,6.60
2023-04-21T01:55:07.505Z,6.20
2023-04-21T01:57:36.470Z,7.70
2023-04-21T02:00:06.212Z,9.80
2023-04-21T02:02:45.075Z,7.50
2023-04-21T02:05:17.989Z,9.30
2023-04-21T02:07:46.777Z,8.90
2023-04-21T02:10:16.412Z,10.80
2023-04-21T02:12:45.994Z,11.20
2023-04-21T02:15:14.326Z,11.60
2023-04-21T02:17:45.098Z,11.50
2023-04-21T02:20:13.664Z,10.10
2023-04-21T02:22:42.022Z,12.20
2023-04-21T02:25:10.347Z,12.10
2023-04-21T02:27:40.572Z,11.10
2023-04-21T02:30:09.656Z,10.70
2023-04-21T02:32:38.724Z,11.30
2023-04-21T02:35:07.651Z,11.50
2023-04-21T02:37:36.639Z,10.40
2023-04-21T02:40:06.704Z,11.10
2023-04-21T02:42:35.661Z,11.90
2023-04-21T02:45:04.322Z,6.70
2023-04-21T02:47:33.175Z,9.10
2023-04-21T02:50:01.490Z,9.30
2023-04-21T02:52:29.976Z,9.90
2023-04-21T02:54:58.258Z,10.20
2023-04-21T02:57:27.140Z,9.20
2023-04-21T02:59:55.571Z,9.80
2023-04-21T03:02:24.435Z,11.00
2023-04-21T03:04:53.499Z,10.10
2023-04-21T03:07:21.880Z,9.80
2023-04-21T03:09:50.238Z,8.80
2023-04-21T03:12:18.873Z,8.00
2023-04-21T03:14:47.838Z,10.70
2023-04-21T03:17:16.213Z,8.10
2023-04-21T03:19:44.488Z,10.30
2023-04-21T03:22:13.167Z,10.40
2023-04-21T03:24:41.454Z,10.80
2023-04-21T03:27:11.014Z,12.00
2023-04-21T03:29:39.799Z,10.40
2023-04-21T03:32:08.218Z,10.90
2023-04-21T03:34:36.990Z,9.80
2023-04-21T03:37:06.444Z,8.00
2023-04-21T03:39:34.989Z,8.20
2023-04-21T03:42:05.176Z,12.40
2023-04-21T03:44:33.355Z,16.50
2023-04-21T03:47:05.979Z,16.80
2023-04-21T03:49:35.193Z,10.30
2023-04-21T03:52:03.852Z,11.30
2023-04-21T03:54:32.517Z,10.20
2023-04-21T03:57:00.923Z,7.00
2023-04-21T03:59:29.505Z,8.20
2023-04-21T04:01:57.844Z,7.30
2023-04-21T04:04:26.911Z,8.70
2023-04-21T04:06:55.599Z,8.00
2023-04-21T04:09:27.533Z,10.50
2023-04-21T04:11:56.158Z,10.60
2023-04-21T04:14:24.371Z,11.40
